Terminal Aerodrome Forecast
Issued by NWS

Home | Current Version | Previous Version | Text Only | Print | Product List | Glossary On
Versions: 1 2 3 4 5 6 7 8 9 10 11 12 13 14
000
FTUS45 KREV 221746
TAFTRK
TAF
KTRK 221746Z 2218/2318 18018G28KT 1SM -SN OVC010
      TEMPO 2220/2223 20015G25KT 3SM -SN SCT005 BKN015
     FM230000 22008KT 1/2SM SN OVC003
     FM230900 22006KT 5SM -SHSN SCT009 BKN020=

USA.gov is the U.S. government's official web portal to all federal, state and local government web resources and services.